createdAt,value
2019-05-18T00:00:43.267Z,990.54
2019-05-18T00:01:43.244Z,990.50
2019-05-18T00:02:43.238Z,990.53
2019-05-18T00:03:43.224Z,990.52
2019-05-18T00:04:43.229Z,990.50
2019-05-18T00:05:43.202Z,990.49
2019-05-18T00:06:43.192Z,990.49
2019-05-18T00:07:43.185Z,990.50
2019-05-18T00:08:43.183Z,990.47
2019-05-18T00:09:43.165Z,990.49
2019-05-18T00:10:43.145Z,990.42
2019-05-18T00:11:43.143Z,990.43
2019-05-18T00:12:43.114Z,990.40
2019-05-18T00:13:43.131Z,990.43
2019-05-18T00:14:43.104Z,990.42
2019-05-18T00:15:43.093Z,990.44
2019-05-18T00:16:43.086Z,990.42
2019-05-18T00:17:43.071Z,990.41
2019-05-18T00:18:43.079Z,990.43
2019-05-18T00:19:43.048Z,990.42
2019-05-18T00:20:43.030Z,990.43
2019-05-18T00:21:43.031Z,990.43
2019-05-18T00:22:43.064Z,990.40
2019-05-18T00:23:43.012Z,990.38
2019-05-18T00:24:43.002Z,990.36
2019-05-18T00:25:42.982Z,990.37
2019-05-18T00:26:42.972Z,990.39
2019-05-18T00:27:42.962Z,990.36
2019-05-18T00:28:42.961Z,990.37
2019-05-18T00:29:42.937Z,990.34
2019-05-18T00:30:42.941Z,990.32
2019-05-18T00:31:42.918Z,990.27
2019-05-18T00:32:42.910Z,990.32
2019-05-18T00:33:42.920Z,990.33
2019-05-18T00:34:42.893Z,990.34
2019-05-18T00:35:42.881Z,990.36
2019-05-18T00:36:42.885Z,990.32
2019-05-18T00:37:42.885Z,990.33
2019-05-18T00:38:42.848Z,990.32
2019-05-18T00:39:42.843Z,990.32
2019-05-18T00:40:42.839Z,990.33
2019-05-18T00:41:45.433Z,990.32
2019-05-18T00:42:42.801Z,990.30
2019-05-18T00:43:42.810Z,990.32
2019-05-18T00:44:42.768Z,990.30
2019-05-18T00:45:42.778Z,990.32
2019-05-18T00:46:42.770Z,990.26
2019-05-18T00:47:42.812Z,990.33
2019-05-18T00:48:42.765Z,990.34
2019-05-18T00:49:42.719Z,990.30
2019-05-18T00:50:42.728Z,990.30
2019-05-18T00:51:42.709Z,990.29
2019-05-18T00:52:42.680Z,990.26
2019-05-18T00:53:42.717Z,990.29
2019-05-18T00:54:42.670Z,990.25
2019-05-18T00:55:42.660Z,990.26
2019-05-18T00:56:42.671Z,990.27
2019-05-18T00:57:43.008Z,990.26
2019-05-18T00:58:42.660Z,990.26
2019-05-18T00:59:42.607Z,990.27
2019-05-18T01:00:42.610Z,990.25
2019-05-18T01:01:42.631Z,990.25
2019-05-18T01:02:42.578Z,990.25
2019-05-18T01:03:42.578Z,990.25
2019-05-18T01:04:42.558Z,990.25
2019-05-18T01:05:42.600Z,990.24
2019-05-18T01:06:42.536Z,990.23
2019-05-18T01:07:42.554Z,990.24
2019-05-18T01:08:42.522Z,990.24
2019-05-18T01:09:42.517Z,990.22
2019-05-18T01:10:42.498Z,990.24
2019-05-18T01:11:42.506Z,990.21
2019-05-18T01:12:42.486Z,990.24
2019-05-18T01:13:42.467Z,990.22
2019-05-18T01:14:42.455Z,990.23
2019-05-18T01:15:42.447Z,990.18
2019-05-18T01:16:42.449Z,990.19
2019-05-18T01:17:56.450Z,990.21
2019-05-18T01:18:43.425Z,990.19
2019-05-18T01:19:42.403Z,990.15
2019-05-18T01:20:42.397Z,990.17
2019-05-18T01:21:42.375Z,990.16
2019-05-18T01:22:42.400Z,990.16
2019-05-18T01:23:42.358Z,990.11
2019-05-18T01:24:42.768Z,990.11
2019-05-18T01:25:42.342Z,990.12
2019-05-18T01:26:42.326Z,990.11
2019-05-18T01:27:42.332Z,990.15
2019-05-18T01:28:42.315Z,990.12
2019-05-18T01:29:42.293Z,990.12
2019-05-18T01:30:42.325Z,990.12
2019-05-18T01:31:42.277Z,990.14
2019-05-18T01:32:42.318Z,990.10
2019-05-18T01:33:42.244Z,990.10
2019-05-18T01:34:42.256Z,990.13
2019-05-18T01:35:42.233Z,990.10
2019-05-18T01:36:42.253Z,990.11
2019-05-18T01:37:42.228Z,990.12
2019-05-18T01:38:42.233Z,990.16
2019-05-18T01:39:42.183Z,990.17
2019-05-18T01:40:42.171Z,990.22
2019-05-18T01:41:42.163Z,990.21
2019-05-18T01:42:42.176Z,990.23
2019-05-18T01:43:42.148Z,990.23
2019-05-18T01:44:42.125Z,990.23
2019-05-18T01:45:42.142Z,990.20
2019-05-18T01:46:42.114Z,990.23
2019-05-18T01:47:42.121Z,990.28
2019-05-18T01:48:42.096Z,990.28
2019-05-18T01:49:42.277Z,990.28
2019-05-18T01:50:42.073Z,990.23
2019-05-18T01:51:42.051Z,990.24
2019-05-18T01:52:42.063Z,990.21
2019-05-18T01:53:42.064Z,990.24
2019-05-18T01:54:42.026Z,990.18
2019-05-18T01:55:42.012Z,990.19
2019-05-18T01:56:42.002Z,990.19
2019-05-18T01:57:42.002Z,990.15
2019-05-18T01:58:42.013Z,990.17
2019-05-18T01:59:41.969Z,990.16
2019-05-18T02:00:43.012Z,990.15
2019-05-18T02:01:41.954Z,990.20
2019-05-18T02:02:41.952Z,990.21
2019-05-18T02:03:41.954Z,990.23
2019-05-18T02:04:41.911Z,990.21
2019-05-18T02:05:41.906Z,990.23
2019-05-18T02:06:41.894Z,990.24
2019-05-18T02:07:41.913Z,990.21
2019-05-18T02:08:41.878Z,990.24
2019-05-18T02:09:41.871Z,990.27
2019-05-18T02:10:42.077Z,990.25
2019-05-18T02:11:41.850Z,990.26
2019-05-18T02:12:41.853Z,990.22
2019-05-18T02:13:41.872Z,990.28
2019-05-18T02:14:41.838Z,990.25
2019-05-18T02:15:41.799Z,990.26
2019-05-18T02:16:41.801Z,990.26
2019-05-18T02:17:41.804Z,990.21
2019-05-18T02:18:41.766Z,990.20
2019-05-18T02:19:41.770Z,990.25
2019-05-18T02:20:41.745Z,990.23
2019-05-18T02:21:41.726Z,990.23
2019-05-18T02:22:41.744Z,990.22
2019-05-18T02:23:41.731Z,990.19
2019-05-18T02:24:41.709Z,990.20
2019-05-18T02:25:41.695Z,990.18
2019-05-18T02:26:41.683Z,990.20
2019-05-18T02:27:41.687Z,990.20
2019-05-18T02:28:41.653Z,990.20
2019-05-18T02:29:41.680Z,990.18
2019-05-18T02:30:41.641Z,990.22
2019-05-18T02:31:41.661Z,990.23
2019-05-18T02:32:41.632Z,990.13
2019-05-18T02:33:41.600Z,990.14
2019-05-18T02:34:41.617Z,990.13
2019-05-18T02:35:41.599Z,990.08
2019-05-18T02:36:41.600Z,990.09
2019-05-18T02:37:41.603Z,990.13
2019-05-18T02:38:41.559Z,990.11
2019-05-18T02:39:41.551Z,990.10
2019-05-18T02:40:41.529Z,990.09
2019-05-18T02:41:41.570Z,990.11
2019-05-18T02:42:41.526Z,990.15
2019-05-18T02:43:41.511Z,990.09
2019-05-18T02:44:41.540Z,990.11
2019-05-18T02:45:41.478Z,990.08
2019-05-18T02:46:41.473Z,990.11
2019-05-18T02:47:41.479Z,990.08
2019-05-18T02:48:49.600Z,990.06
2019-05-18T02:49:42.440Z,990.07
2019-05-18T02:50:41.425Z,990.03
2019-05-18T02:51:41.477Z,989.98
2019-05-18T02:52:41.439Z,990.07
2019-05-18T02:53:41.390Z,990.00
2019-05-18T02:54:41.390Z,989.99
2019-05-18T02:55:41.363Z,989.95
2019-05-18T02:56:41.359Z,989.98
2019-05-18T02:57:41.351Z,989.97
2019-05-18T02:58:41.372Z,989.98
2019-05-18T02:59:41.329Z,989.96
2019-05-18T03:00:41.317Z,989.98
2019-05-18T03:01:41.343Z,989.95
2019-05-18T03:02:41.288Z,989.93
2019-05-18T03:03:41.307Z,989.91
2019-05-18T03:04:41.273Z,989.93
2019-05-18T03:05:41.264Z,989.89
2019-05-18T03:06:41.274Z,989.93
2019-05-18T03:07:41.891Z,989.89
2019-05-18T03:08:41.229Z,989.88
2019-05-18T03:09:41.237Z,989.91
2019-05-18T03:10:41.195Z,989.92
2019-05-18T03:11:41.227Z,989.90
2019-05-18T03:12:41.434Z,989.94
2019-05-18T03:13:41.417Z,989.89
2019-05-18T03:14:41.166Z,989.89
2019-05-18T03:15:41.155Z,989.87
2019-05-18T03:16:41.669Z,989.85
2019-05-18T03:17:41.376Z,989.84
2019-05-18T03:18:41.117Z,989.85
2019-05-18T03:19:41.120Z,989.84
2019-05-18T03:20:41.112Z,989.82
2019-05-18T03:21:41.501Z,989.84
2019-05-18T03:22:41.148Z,989.81
2019-05-18T03:23:41.628Z,989.82
2019-05-18T03:24:41.306Z,989.87
2019-05-18T03:25:41.040Z,989.82
2019-05-18T03:26:41.627Z,989.83
2019-05-18T03:27:41.919Z,989.88
2019-05-18T03:28:41.836Z,989.84
2019-05-18T03:29:41.185Z,989.83
2019-05-18T03:30:41.103Z,989.85
2019-05-18T03:31:41.121Z,989.85
2019-05-18T03:32:41.152Z,989.82
2019-05-18T03:33:41.006Z,989.88
2019-05-18T03:34:41.074Z,989.84
2019-05-18T03:35:41.043Z,989.89
2019-05-18T03:36:40.928Z,989.87
2019-05-18T03:37:40.903Z,989.90
2019-05-18T03:38:41.160Z,989.87
2019-05-18T03:39:40.997Z,989.95
2019-05-18T03:40:41.082Z,989.91
2019-05-18T03:41:40.950Z,989.95
2019-05-18T03:42:40.942Z,989.96
2019-05-18T03:43:41.037Z,990.02
2019-05-18T03:44:40.835Z,990.01
2019-05-18T03:45:40.873Z,990.04
2019-05-18T03:46:40.920Z,990.04
2019-05-18T03:47:40.822Z,990.05
2019-05-18T03:48:40.947Z,990.02
2019-05-18T03:49:40.950Z,990.03
2019-05-18T03:50:41.083Z,990.00
2019-05-18T03:51:40.804Z,990.02
2019-05-18T03:52:41.463Z,990.04
2019-05-18T03:53:40.780Z,990.05
2019-05-18T03:54:40.735Z,990.03
2019-05-18T03:55:45.540Z,990.03
2019-05-18T03:56:40.770Z,990.04
2019-05-18T03:57:40.752Z,990.01
2019-05-18T03:58:40.733Z,990.00
2019-05-18T03:59:40.705Z,990.02
2019-05-18T04:00:40.665Z,990.02
2019-05-18T04:01:40.682Z,989.98
2019-05-18T04:02:40.645Z,989.99
2019-05-18T04:03:40.642Z,990.03
2019-05-18T04:04:41.375Z,990.01
2019-05-18T04:05:40.641Z,990.02
2019-05-18T04:06:40.667Z,990.02
2019-05-18T04:07:40.594Z,989.97
2019-05-18T04:08:40.578Z,990.01
2019-05-18T04:09:40.567Z,989.98
2019-05-18T04:10:41.238Z,989.98
2019-05-18T04:11:41.277Z,989.95
2019-05-18T04:12:40.600Z,989.97
2019-05-18T04:13:40.533Z,990.00
2019-05-18T04:14:40.560Z,990.03
2019-05-18T04:15:42.002Z,990.08
2019-05-18T04:16:40.504Z,990.10
2019-05-18T04:17:40.480Z,990.08
2019-05-18T04:18:40.509Z,990.05
2019-05-18T04:19:46.084Z,990.05
2019-05-18T04:20:41.796Z,990.03
2019-05-18T04:21:40.440Z,990.00
2019-05-18T04:22:40.435Z,990.01
2019-05-18T04:23:40.458Z,990.02
2019-05-18T04:24:41.429Z,990.02
2019-05-18T04:25:43.733Z,990.04
2019-05-18T04:26:40.427Z,990.07
2019-05-18T04:27:40.401Z,990.08
2019-05-18T04:28:40.388Z,990.04
2019-05-18T04:29:40.413Z,990.04
2019-05-18T04:30:40.351Z,989.99
2019-05-18T04:31:41.454Z,989.99
2019-05-18T04:32:40.328Z,989.97
2019-05-18T04:33:40.659Z,990.00
2019-05-18T04:34:41.473Z,989.99
2019-05-18T04:35:40.722Z,990.01
2019-05-18T04:36:40.455Z,990.00
2019-05-18T04:37:40.440Z,990.02
2019-05-18T04:38:40.365Z,990.00
2019-05-18T04:39:40.385Z,990.05
2019-05-18T04:40:40.359Z,990.01
2019-05-18T04:41:40.427Z,990.03
2019-05-18T04:42:40.343Z,990.03
2019-05-18T04:43:40.305Z,990.06
2019-05-18T04:44:40.265Z,990.08
2019-05-18T04:45:40.337Z,990.07
2019-05-18T04:46:40.339Z,990.06
2019-05-18T04:47:40.200Z,990.11
2019-05-18T04:48:40.630Z,990.10
2019-05-18T04:49:40.490Z,990.14
2019-05-18T04:50:40.137Z,990.11
2019-05-18T04:51:40.129Z,990.06
2019-05-18T04:52:40.537Z,990.12
2019-05-18T04:53:40.202Z,990.12
2019-05-18T04:54:40.178Z,990.14
2019-05-18T04:55:40.206Z,990.11
2019-05-18T04:56:42.882Z,990.15
2019-05-18T04:57:40.063Z,990.18
2019-05-18T04:58:40.058Z,990.19
2019-05-18T04:59:40.067Z,990.16
2019-05-18T05:00:40.036Z,990.21
2019-05-18T05:01:40.929Z,990.20
2019-05-18T05:02:40.015Z,990.24
2019-05-18T05:03:39.988Z,990.24
2019-05-18T05:04:40.084Z,990.23
2019-05-18T05:05:40.088Z,990.26
2019-05-18T05:06:40.026Z,990.29
2019-05-18T05:07:40.063Z,990.27
2019-05-18T05:08:40.241Z,990.26
2019-05-18T05:09:39.956Z,990.24
2019-05-18T05:10:39.968Z,990.28
2019-05-18T05:11:39.914Z,990.33
2019-05-18T05:12:39.882Z,990.31
2019-05-18T05:13:39.875Z,990.31
2019-05-18T05:14:39.876Z,990.26
2019-05-18T05:15:39.959Z,990.28
2019-05-18T05:16:39.874Z,990.31
2019-05-18T05:17:39.874Z,990.24
2019-05-18T05:18:40.074Z,990.28
2019-05-18T05:19:39.830Z,990.27
2019-05-18T05:20:39.854Z,990.22
2019-05-18T05:21:40.646Z,990.19
2019-05-18T05:22:39.854Z,990.20
2019-05-18T05:23:39.773Z,990.18
2019-05-18T05:24:39.776Z,990.18
2019-05-18T05:25:40.273Z,990.19
2019-05-18T05:26:39.986Z,990.18
2019-05-18T05:27:39.963Z,990.18
2019-05-18T05:28:40.565Z,990.22
2019-05-18T05:29:39.980Z,990.20
2019-05-18T05:30:39.837Z,990.22
2019-05-18T05:31:39.713Z,990.23
2019-05-18T05:32:41.907Z,990.20
2019-05-18T05:33:39.921Z,990.23
2019-05-18T05:34:39.801Z,990.24
2019-05-18T05:35:39.793Z,990.21
2019-05-18T05:36:39.647Z,990.18
2019-05-18T05:37:40.170Z,990.19
2019-05-18T05:38:39.850Z,990.19
2019-05-18T05:39:39.803Z,990.21
2019-05-18T05:40:39.625Z,990.20
2019-05-18T05:41:39.586Z,990.16
2019-05-18T05:42:39.679Z,990.19
2019-05-18T05:43:39.571Z,990.25
2019-05-18T05:44:40.229Z,990.27
2019-05-18T05:45:40.579Z,990.32
2019-05-18T05:46:40.599Z,990.27
2019-05-18T05:47:39.542Z,990.30
2019-05-18T05:48:39.533Z,990.31
2019-05-18T05:49:39.787Z,990.30
2019-05-18T05:50:39.486Z,990.34
2019-05-18T05:51:39.573Z,990.33
2019-05-18T05:52:39.587Z,990.30
2019-05-18T05:53:39.454Z,990.34
2019-05-18T05:54:39.454Z,990.34
2019-05-18T05:55:39.524Z,990.31
2019-05-18T05:56:39.514Z,990.27
2019-05-18T05:57:39.677Z,990.24
2019-05-18T05:58:39.823Z,990.27
2019-05-18T05:59:39.510Z,990.30
2019-05-18T06:00:39.394Z,990.27
2019-05-18T06:01:39.372Z,990.27
2019-05-18T06:02:39.342Z,990.27
2019-05-18T06:03:39.341Z,990.29
2019-05-18T06:04:39.372Z,990.26
2019-05-18T06:05:39.382Z,990.28
2019-05-18T06:06:39.330Z,990.30
2019-05-18T06:07:39.339Z,990.28
2019-05-18T06:08:39.290Z,990.30
2019-05-18T06:09:39.271Z,990.24
2019-05-18T06:10:39.318Z,990.28
2019-05-18T06:11:39.278Z,990.25
2019-05-18T06:12:39.252Z,990.29
2019-05-18T06:13:39.248Z,990.29
2019-05-18T06:14:39.231Z,990.30
2019-05-18T06:15:39.239Z,990.33
2019-05-18T06:16:39.202Z,990.30
2019-05-18T06:17:39.203Z,990.29
2019-05-18T06:18:39.186Z,990.34
2019-05-18T06:19:39.169Z,990.36
2019-05-18T06:20:51.074Z,990.32
2019-05-18T06:21:40.180Z,990.31
2019-05-18T06:22:39.141Z,990.35
2019-05-18T06:23:39.133Z,990.27
2019-05-18T06:24:39.119Z,990.32
2019-05-18T06:25:39.146Z,990.32
2019-05-18T06:26:39.088Z,990.37
2019-05-18T06:27:39.110Z,990.33
2019-05-18T06:28:39.080Z,990.35
2019-05-18T06:29:39.066Z,990.37
2019-05-18T06:30:39.052Z,990.34
2019-05-18T06:31:39.061Z,990.35
2019-05-18T06:32:39.061Z,990.36
2019-05-18T06:33:39.020Z,990.35
2019-05-18T06:34:39.376Z,990.33
2019-05-18T06:35:44.121Z,990.35
2019-05-18T06:36:40.551Z,990.30
2019-05-18T06:37:38.971Z,990.35
2019-05-18T06:38:39.011Z,990.34
2019-05-18T06:39:38.986Z,990.33
2019-05-18T06:40:38.959Z,990.31
2019-05-18T06:41:38.954Z,990.34
2019-05-18T06:42:38.949Z,990.31
2019-05-18T06:43:38.938Z,990.32
2019-05-18T06:44:38.921Z,990.33
2019-05-18T06:45:38.879Z,990.33
2019-05-18T06:46:38.882Z,990.40
2019-05-18T06:47:38.871Z,990.39
2019-05-18T06:48:38.863Z,990.38
2019-05-18T06:49:38.866Z,990.42
2019-05-18T06:50:38.850Z,990.44
2019-05-18T06:51:38.929Z,990.44
2019-05-18T06:52:38.863Z,990.47
2019-05-18T06:53:38.835Z,990.44
2019-05-18T06:54:38.801Z,990.44
2019-05-18T06:55:38.771Z,990.46
2019-05-18T06:56:38.834Z,990.47
2019-05-18T06:57:38.768Z,990.49
2019-05-18T06:58:38.760Z,990.46
2019-05-18T06:59:38.738Z,990.45
2019-05-18T07:00:38.759Z,990.51
2019-05-18T07:01:38.717Z,990.50
2019-05-18T07:02:38.696Z,990.45
2019-05-18T07:03:38.718Z,990.48
2019-05-18T07:04:38.681Z,990.45
2019-05-18T07:05:38.688Z,990.42
2019-05-18T07:06:38.668Z,990.44
2019-05-18T07:07:38.707Z,990.42
2019-05-18T07:08:38.646Z,990.41
2019-05-18T07:09:38.647Z,990.44
2019-05-18T07:10:38.639Z,990.39
2019-05-18T07:11:38.648Z,990.47
2019-05-18T07:12:38.615Z,990.42
2019-05-18T07:13:38.667Z,990.46
2019-05-18T07:14:38.615Z,990.44
2019-05-18T07:15:38.567Z,990.47
2019-05-18T07:16:38.581Z,990.41
2019-05-18T07:17:38.560Z,990.45
2019-05-18T07:18:38.521Z,990.45
2019-05-18T07:19:38.538Z,990.42
2019-05-18T07:20:38.519Z,990.50
2019-05-18T07:21:38.509Z,990.50
2019-05-18T07:22:38.490Z,990.52
2019-05-18T07:23:38.480Z,990.53
2019-05-18T07:24:38.484Z,990.53
2019-05-18T07:25:38.448Z,990.53
2019-05-18T07:26:38.451Z,990.49
2019-05-18T07:27:38.473Z,990.50
2019-05-18T07:28:38.480Z,990.54
2019-05-18T07:29:38.449Z,990.53
2019-05-18T07:30:38.411Z,990.55
2019-05-18T07:31:38.402Z,990.50
2019-05-18T07:32:38.388Z,990.51
2019-05-18T07:33:38.393Z,990.53
2019-05-18T07:34:38.359Z,990.48
2019-05-18T07:35:38.371Z,990.49
2019-05-18T07:36:38.333Z,990.53
2019-05-18T07:37:38.335Z,990.50
2019-05-18T07:38:38.337Z,990.52
2019-05-18T07:39:38.299Z,990.53
2019-05-18T07:40:38.290Z,990.54
2019-05-18T07:41:46.230Z,990.53
2019-05-18T07:42:39.261Z,990.50
2019-05-18T07:43:38.287Z,990.50
2019-05-18T07:44:38.251Z,990.53
2019-05-18T07:45:38.244Z,990.54
2019-05-18T07:46:38.229Z,990.50
2019-05-18T07:47:38.212Z,990.48
2019-05-18T07:48:38.234Z,990.50
2019-05-18T07:49:38.195Z,990.45
2019-05-18T07:50:38.203Z,990.51
2019-05-18T07:51:38.173Z,990.53
2019-05-18T07:52:38.163Z,990.50
2019-05-18T07:53:38.180Z,990.48
2019-05-18T07:54:38.133Z,990.49
2019-05-18T07:55:38.152Z,990.47
2019-05-18T07:56:38.153Z,990.48
2019-05-18T07:57:38.102Z,990.51
2019-05-18T07:58:38.110Z,990.49
2019-05-18T07:59:38.120Z,990.49
2019-05-18T08:00:38.090Z,990.52
2019-05-18T08:01:38.076Z,990.48
2019-05-18T08:02:38.151Z,990.46
2019-05-18T08:03:38.136Z,990.52
2019-05-18T08:04:39.798Z,990.54
2019-05-18T08:05:38.023Z,990.52
2019-05-18T08:06:38.015Z,990.53
2019-05-18T08:07:38.002Z,990.59
2019-05-18T08:08:38.011Z,990.52
2019-05-18T08:09:38.003Z,990.51
2019-05-18T08:10:38.023Z,990.55
2019-05-18T08:11:37.963Z,990.58
2019-05-18T08:12:37.954Z,990.58
2019-05-18T08:13:37.985Z,990.55
2019-05-18T08:14:37.920Z,990.58
2019-05-18T08:15:37.946Z,990.64
2019-05-18T08:16:37.967Z,990.73
2019-05-18T08:17:37.896Z,990.65
2019-05-18T08:18:37.883Z,990.78
2019-05-18T08:19:37.884Z,990.72
2019-05-18T08:20:37.869Z,990.60
2019-05-18T08:21:52.227Z,990.63
2019-05-18T08:22:38.866Z,990.62
2019-05-18T08:23:37.826Z,990.65
2019-05-18T08:24:37.842Z,990.62
2019-05-18T08:25:37.880Z,990.63
2019-05-18T08:26:37.832Z,990.61
2019-05-18T08:27:37.791Z,990.60
2019-05-18T08:28:37.801Z,990.66
2019-05-18T08:29:37.776Z,990.63
2019-05-18T08:30:37.768Z,990.64
2019-05-18T08:31:37.796Z,990.64
2019-05-18T08:32:37.764Z,990.57
2019-05-18T08:33:37.736Z,990.64
2019-05-18T08:34:37.743Z,990.64
2019-05-18T08:35:37.704Z,990.69
2019-05-18T08:36:37.693Z,990.62
2019-05-18T08:37:37.718Z,990.62
2019-05-18T08:38:38.462Z,990.62
2019-05-18T08:39:37.674Z,990.62
2019-05-18T08:40:37.648Z,990.63
2019-05-18T08:41:37.644Z,990.69
2019-05-18T08:42:37.696Z,990.69
2019-05-18T08:43:37.618Z,990.62
2019-05-18T08:44:37.655Z,990.68
2019-05-18T08:45:37.629Z,990.79
2019-05-18T08:46:37.576Z,990.72
2019-05-18T08:47:37.602Z,990.73
2019-05-18T08:48:37.582Z,990.71
2019-05-18T08:49:37.565Z,990.66
2019-05-18T08:50:37.583Z,990.69
2019-05-18T08:51:37.555Z,990.69
2019-05-18T08:52:37.546Z,990.67
2019-05-18T08:53:37.516Z,990.70
2019-05-18T08:54:37.525Z,990.67
2019-05-18T08:55:38.944Z,990.64
2019-05-18T08:56:37.496Z,990.63
2019-05-18T08:57:37.477Z,990.68
2019-05-18T08:58:37.460Z,990.69
2019-05-18T08:59:39.918Z,990.85
2019-05-18T09:00:37.442Z,990.82
2019-05-18T09:01:37.448Z,990.83
2019-05-18T09:02:37.440Z,990.86
2019-05-18T09:03:37.397Z,990.96
2019-05-18T09:04:37.399Z,990.96
2019-05-18T09:05:37.409Z,990.98
2019-05-18T09:06:37.427Z,991.16
2019-05-18T09:07:37.395Z,991.22
2019-05-18T09:08:37.357Z,991.25
2019-05-18T09:09:37.336Z,991.30
2019-05-18T09:10:37.331Z,991.29
2019-05-18T09:11:37.337Z,991.33
2019-05-18T09:12:37.693Z,991.31
2019-05-18T09:13:38.040Z,991.32
2019-05-18T09:14:38.733Z,991.36
2019-05-18T09:15:40.021Z,991.33
2019-05-18T09:16:37.308Z,991.35
2019-05-18T09:17:37.631Z,991.38
2019-05-18T09:18:37.242Z,991.42
2019-05-18T09:19:37.293Z,991.45
2019-05-18T09:20:37.299Z,991.47
2019-05-18T09:21:37.254Z,991.52
2019-05-18T09:22:37.312Z,991.46
2019-05-18T09:23:37.198Z,991.55
2019-05-18T09:24:37.189Z,991.51
2019-05-18T09:25:37.200Z,991.57
2019-05-18T09:26:37.202Z,991.54
2019-05-18T09:27:37.157Z,991.60
2019-05-18T09:28:37.157Z,991.60
2019-05-18T09:29:37.174Z,991.56
2019-05-18T09:30:37.134Z,991.54
2019-05-18T09:31:37.128Z,991.58
2019-05-18T09:32:37.132Z,991.54
2019-05-18T09:33:37.105Z,990.93
2019-05-18T09:34:37.095Z,991.29
2019-05-18T09:35:37.082Z,990.88
2019-05-18T09:36:37.103Z,991.29
2019-05-18T09:37:37.086Z,991.44
2019-05-18T09:38:37.077Z,991.54
2019-05-18T09:39:37.052Z,991.37
2019-05-18T09:40:37.032Z,991.49
2019-05-18T09:41:37.077Z,991.51
2019-05-18T09:42:37.033Z,991.38
2019-05-18T09:43:37.046Z,991.38
2019-05-18T09:44:36.988Z,991.36
2019-05-18T09:45:36.983Z,991.38
2019-05-18T09:46:36.983Z,991.36
2019-05-18T09:47:36.971Z,991.45
2019-05-18T09:48:36.973Z,991.44
2019-05-18T09:49:36.953Z,991.52
2019-05-18T09:50:36.934Z,991.57
2019-05-18T09:51:36.932Z,991.56
2019-05-18T09:52:45.084Z,991.59
2019-05-18T09:53:50.663Z,991.62
2019-05-18T09:54:37.889Z,991.62
2019-05-18T09:55:36.879Z,990.86
2019-05-18T09:56:36.882Z,990.86
2019-05-18T09:57:36.995Z,990.80
2019-05-18T09:58:36.857Z,991.36
2019-05-18T09:59:36.864Z,990.90
2019-05-18T10:00:39.104Z,990.96
2019-05-18T10:01:36.846Z,990.84
2019-05-18T10:02:36.815Z,990.85
2019-05-18T10:03:36.888Z,991.44
2019-05-18T10:04:36.814Z,991.49
2019-05-18T10:05:36.805Z,991.52
2019-05-18T10:06:36.772Z,991.55
2019-05-18T10:07:36.776Z,991.48
2019-05-18T10:08:36.793Z,991.34
2019-05-18T10:09:39.193Z,991.26
2019-05-18T10:10:36.757Z,991.09
2019-05-18T10:11:38.654Z,990.93
2019-05-18T10:12:36.734Z,990.81
2019-05-18T10:13:36.728Z,990.85
2019-05-18T10:14:36.732Z,990.83
2019-05-18T10:15:36.684Z,990.79
2019-05-18T10:16:36.674Z,990.71
2019-05-18T10:17:36.655Z,990.66
2019-05-18T10:18:36.675Z,990.69
2019-05-18T10:19:36.655Z,990.70
2019-05-18T10:20:36.645Z,990.69
2019-05-18T10:21:36.635Z,990.74
2019-05-18T10:22:36.616Z,990.68
2019-05-18T10:23:36.617Z,990.67
2019-05-18T10:24:36.578Z,990.62
2019-05-18T10:25:36.575Z,990.62
2019-05-18T10:26:36.608Z,990.60
2019-05-18T10:27:36.568Z,990.62
2019-05-18T10:28:36.547Z,990.63
2019-05-18T10:29:36.627Z,990.57
2019-05-18T10:30:36.606Z,990.59
2019-05-18T10:31:36.523Z,990.58
2019-05-18T10:32:36.539Z,990.53
2019-05-18T10:33:36.528Z,990.56
2019-05-18T10:34:36.480Z,990.55
2019-05-18T10:35:36.498Z,990.51
2019-05-18T10:36:36.491Z,990.51
2019-05-18T10:37:36.449Z,990.57
2019-05-18T10:38:36.540Z,990.56
2019-05-18T10:39:38.748Z,990.56
2019-05-18T10:40:36.424Z,990.61
2019-05-18T10:41:36.431Z,990.56
2019-05-18T10:42:36.405Z,990.55
2019-05-18T10:43:36.407Z,990.56
2019-05-18T10:44:36.390Z,990.52
2019-05-18T10:45:36.386Z,990.61
2019-05-18T10:46:36.429Z,990.62
2019-05-18T10:47:36.349Z,990.87
2019-05-18T10:48:37.161Z,990.87
2019-05-18T10:49:36.330Z,991.09
2019-05-18T10:50:36.331Z,990.76
2019-05-18T10:51:36.329Z,990.64
2019-05-18T10:52:36.308Z,990.61
2019-05-18T10:53:36.288Z,990.83
2019-05-18T10:54:36.462Z,991.22
2019-05-18T10:55:36.260Z,990.65
2019-05-18T10:56:36.260Z,990.69
2019-05-18T10:57:36.276Z,991.05
2019-05-18T10:58:36.255Z,990.80
2019-05-18T10:59:36.224Z,990.77
2019-05-18T11:00:36.212Z,991.21
2019-05-18T11:01:36.210Z,991.27
2019-05-18T11:02:36.259Z,991.29
2019-05-18T11:03:36.183Z,990.66
2019-05-18T11:04:36.236Z,990.54
2019-05-18T11:05:36.192Z,990.49
2019-05-18T11:06:36.157Z,990.49
2019-05-18T11:07:36.493Z,990.50
2019-05-18T11:08:38.428Z,990.84
2019-05-18T11:09:36.111Z,991.09
2019-05-18T11:10:36.192Z,991.28
2019-05-18T11:11:36.101Z,991.28
2019-05-18T11:12:36.088Z,991.36
2019-05-18T11:13:36.135Z,991.39
2019-05-18T11:14:36.090Z,991.38
2019-05-18T11:15:36.062Z,991.33
2019-05-18T11:16:36.060Z,991.34
2019-05-18T11:17:36.047Z,991.44
2019-05-18T11:18:36.061Z,991.43
2019-05-18T11:19:36.022Z,991.36
2019-05-18T11:20:36.045Z,991.32
2019-05-18T11:21:36.006Z,991.17
2019-05-18T11:22:35.991Z,991.17
2019-05-18T11:23:43.713Z,991.19
2019-05-18T11:24:36.988Z,991.29
2019-05-18T11:25:35.997Z,991.29
2019-05-18T11:26:35.974Z,991.36
2019-05-18T11:27:35.952Z,991.31
2019-05-18T11:28:35.945Z,991.34
2019-05-18T11:29:35.930Z,991.33
2019-05-18T11:30:35.945Z,991.37
2019-05-18T11:31:35.895Z,991.39
2019-05-18T11:32:35.897Z,991.43
2019-05-18T11:33:35.916Z,991.48
2019-05-18T11:34:35.890Z,991.45
2019-05-18T11:35:35.907Z,991.48
2019-05-18T11:36:35.872Z,991.47
2019-05-18T11:37:35.846Z,991.48
2019-05-18T11:38:35.847Z,991.55
2019-05-18T11:39:35.926Z,990.76
2019-05-18T11:40:35.905Z,990.70
2019-05-18T11:41:35.812Z,990.66
2019-05-18T11:42:35.817Z,990.65
2019-05-18T11:43:35.799Z,990.55
2019-05-18T11:44:35.796Z,990.64
2019-05-18T11:45:35.773Z,991.25
2019-05-18T11:46:35.835Z,990.75
2019-05-18T11:47:35.767Z,991.25
2019-05-18T11:48:35.736Z,990.67
2019-05-18T11:49:35.746Z,990.58
2019-05-18T11:50:35.717Z,991.32
2019-05-18T11:51:35.746Z,991.28
2019-05-18T11:52:36.547Z,991.35
2019-05-18T11:53:36.351Z,991.40
2019-05-18T11:54:35.688Z,990.77
2019-05-18T11:55:35.679Z,990.66
2019-05-18T11:56:35.680Z,991.06
2019-05-18T11:57:35.677Z,990.56
2019-05-18T11:58:35.660Z,990.42
2019-05-18T11:59:35.647Z,990.39
2019-05-18T12:00:35.658Z,990.40
2019-05-18T12:01:35.618Z,990.40
2019-05-18T12:02:35.625Z,990.69
2019-05-18T12:03:35.599Z,990.77
2019-05-18T12:04:35.621Z,991.08
2019-05-18T12:05:35.598Z,991.22
2019-05-18T12:06:35.580Z,991.26
2019-05-18T12:07:35.577Z,991.12
2019-05-18T12:08:35.554Z,991.33
2019-05-18T12:09:35.583Z,991.37
2019-05-18T12:10:35.560Z,991.34
2019-05-18T12:11:35.549Z,991.40
2019-05-18T12:12:35.528Z,991.01
2019-05-18T12:13:35.509Z,991.33
2019-05-18T12:14:35.513Z,991.39
2019-05-18T12:15:35.532Z,991.38
2019-05-18T12:16:35.507Z,991.39
2019-05-18T12:17:35.488Z,991.35
2019-05-18T12:18:35.461Z,991.35
2019-05-18T12:19:35.450Z,991.14
2019-05-18T12:20:35.504Z,990.54
2019-05-18T12:21:35.420Z,990.39
2019-05-18T12:22:35.452Z,990.28
2019-05-18T12:23:35.521Z,990.24
2019-05-18T12:24:35.510Z,990.19
2019-05-18T12:25:35.390Z,990.23
2019-05-18T12:26:35.387Z,990.24
2019-05-18T12:27:35.382Z,990.31
2019-05-18T12:28:35.359Z,990.81